createdAt,value
2018-05-08T00:00:06.776Z,16.67
2018-05-08T00:02:35.067Z,16.60
2018-05-08T00:05:06.169Z,16.48
2018-05-08T00:07:34.574Z,16.44
2018-05-08T00:10:08.478Z,16.33
2018-05-08T00:12:37.081Z,16.22
2018-05-08T00:15:06.175Z,16.22
2018-05-08T00:17:34.451Z,16.17
2018-05-08T00:20:09.487Z,16.08
2018-05-08T00:22:37.947Z,16.09
2018-05-08T00:25:06.223Z,16.00
2018-05-08T00:27:34.515Z,15.88
2018-05-08T00:30:06.126Z,15.90
2018-05-08T00:32:34.418Z,15.90
2018-05-08T00:35:05.912Z,15.78
2018-05-08T00:37:34.185Z,15.85
2018-05-08T00:40:08.295Z,15.80
2018-05-08T00:42:37.071Z,15.90
2018-05-08T00:45:06.317Z,15.77
2018-05-08T00:47:34.614Z,15.73
2018-05-08T00:50:06.614Z,15.71
2018-05-08T00:52:34.890Z,15.64
2018-05-08T00:55:06.903Z,15.63
2018-05-08T00:57:35.305Z,15.65
2018-05-08T01:00:08.139Z,15.63
2018-05-08T01:02:36.414Z,15.64
2018-05-08T01:05:07.731Z,15.67
2018-05-08T01:07:36.012Z,15.63
2018-05-08T01:10:09.012Z,15.51
2018-05-08T01:12:37.301Z,15.19
2018-05-08T01:15:06.199Z,15.26
2018-05-08T01:17:34.487Z,15.32
2018-05-08T01:20:09.575Z,15.37
2018-05-08T01:22:37.895Z,15.48
2018-05-08T01:25:06.803Z,15.50
2018-05-08T01:27:35.107Z,15.41
2018-05-08T01:30:06.325Z,15.23
2018-05-08T01:32:34.771Z,15.25
2018-05-08T01:35:06.819Z,15.12
2018-05-08T01:37:35.099Z,15.03
2018-05-08T01:40:06.307Z,15.06
2018-05-08T01:42:34.582Z,15.10
2018-05-08T01:45:06.156Z,15.04
2018-05-08T01:47:34.441Z,14.73
2018-05-08T01:50:09.435Z,14.66
2018-05-08T01:52:37.783Z,14.76
2018-05-08T01:55:06.039Z,14.82
2018-05-08T01:57:34.530Z,14.80
2018-05-08T02:00:07.480Z,14.78
2018-05-08T02:02:36.067Z,14.68
2018-05-08T02:05:05.958Z,14.71
2018-05-08T02:07:34.285Z,14.71
2018-05-08T02:10:09.255Z,14.70
2018-05-08T02:12:37.580Z,14.76
2018-05-08T02:15:06.262Z,14.93
2018-05-08T02:17:34.539Z,15.07
2018-05-08T02:20:05.846Z,15.21
2018-05-08T02:22:34.130Z,15.23
2018-05-08T02:25:05.591Z,15.32
2018-05-08T02:27:33.875Z,15.36
2018-05-08T02:30:05.287Z,15.49
2018-05-08T02:32:33.811Z,15.43
2018-05-08T02:35:08.456Z,15.45
2018-05-08T02:37:36.749Z,15.44
2018-05-08T02:40:06.559Z,15.49
2018-05-08T02:42:34.845Z,15.40
2018-05-08T02:45:06.339Z,15.25
2018-05-08T02:47:34.824Z,15.19
2018-05-08T02:50:07.195Z,15.11
2018-05-08T02:52:35.697Z,15.03
2018-05-08T02:55:07.492Z,15.10
2018-05-08T02:57:35.771Z,15.06
2018-05-08T03:00:07.085Z,14.65
2018-05-08T03:02:35.591Z,14.56
2018-05-08T03:05:07.506Z,14.44
2018-05-08T03:07:35.809Z,14.32
2018-05-08T03:10:08.486Z,14.23
2018-05-08T03:12:37.410Z,14.32
2018-05-08T03:15:06.639Z,14.20
2018-05-08T03:17:34.863Z,14.19
2018-05-08T03:20:06.788Z,14.10
2018-05-08T03:22:35.063Z,13.92
2018-05-08T03:25:06.256Z,13.93
2018-05-08T03:27:34.527Z,13.91
2018-05-08T03:30:09.698Z,13.80
2018-05-08T03:32:37.966Z,13.37
2018-05-08T03:35:06.251Z,13.59
2018-05-08T03:37:34.644Z,13.64
2018-05-08T03:40:06.814Z,13.79
2018-05-08T03:42:35.084Z,13.77
2018-05-08T03:45:06.290Z,13.65
2018-05-08T03:47:34.552Z,13.74
2018-05-08T03:50:05.987Z,13.76
2018-05-08T03:52:34.264Z,13.76
2018-05-08T03:55:06.087Z,13.66
2018-05-08T03:57:34.357Z,13.65
2018-05-08T04:00:05.983Z,13.64
2018-05-08T04:02:45.930Z,13.71
2018-05-08T04:05:25.769Z,13.67
2018-05-08T04:08:05.711Z,13.64
2018-05-08T04:10:34.212Z,13.63
2018-05-08T04:13:03.251Z,13.72
2018-05-08T04:15:31.709Z,13.73
2018-05-08T04:17:59.898Z,13.66
2018-05-08T04:20:28.188Z,13.64
2018-05-08T04:22:56.484Z,13.68
2018-05-08T04:25:24.841Z,13.74
2018-05-08T04:27:53.099Z,13.80
2018-05-08T04:30:21.396Z,13.83
2018-05-08T04:32:49.672Z,13.87
2018-05-08T04:35:17.947Z,13.90
2018-05-08T04:37:46.220Z,14.03
2018-05-08T04:40:14.523Z,14.14
2018-05-08T04:42:42.791Z,14.28
2018-05-08T04:45:11.247Z,14.44
2018-05-08T04:47:39.726Z,14.43
2018-05-08T04:50:08.001Z,14.62
2018-05-08T04:52:36.266Z,14.89
2018-05-08T04:55:06.356Z,14.98
2018-05-08T04:57:34.770Z,15.19
2018-05-08T05:00:06.406Z,15.41
2018-05-08T05:02:34.715Z,15.49
2018-05-08T05:05:09.823Z,15.51
2018-05-08T05:07:38.087Z,15.49
2018-05-08T05:10:06.380Z,15.70
2018-05-08T05:12:35.120Z,15.77
2018-05-08T05:15:07.255Z,15.71
2018-05-08T05:17:35.520Z,15.57
2018-05-08T05:20:07.175Z,15.69
2018-05-08T05:22:35.440Z,15.64
2018-05-08T05:25:07.248Z,15.51
2018-05-08T05:27:35.743Z,15.39
2018-05-08T05:30:06.376Z,15.44
2018-05-08T05:32:34.675Z,15.43
2018-05-08T05:35:09.813Z,15.53
2018-05-08T05:37:38.075Z,15.61
2018-05-08T05:40:06.348Z,15.72
2018-05-08T05:42:34.643Z,15.77
2018-05-08T05:45:06.055Z,15.85
2018-05-08T05:47:34.341Z,15.93
2018-05-08T05:50:05.659Z,16.14
2018-05-08T05:52:34.426Z,16.38
2018-05-08T05:55:05.680Z,16.28
2018-05-08T05:57:33.971Z,16.30
2018-05-08T06:00:08.645Z,16.30
2018-05-08T06:02:37.334Z,16.61
2018-05-08T06:05:06.427Z,16.57
2018-05-08T06:07:34.702Z,16.60
2018-05-08T06:10:09.849Z,17.18
2018-05-08T06:12:38.123Z,17.55
2018-05-08T06:15:06.391Z,17.66
2018-05-08T06:17:34.671Z,17.63
2018-05-08T06:20:10.519Z,17.70
2018-05-08T06:22:39.025Z,17.91
2018-05-08T06:25:07.303Z,17.79
2018-05-08T06:27:35.571Z,18.07
2018-05-08T06:30:07.654Z,17.82
2018-05-08T06:32:36.119Z,17.66
2018-05-08T06:35:08.936Z,17.54
2018-05-08T06:37:37.492Z,17.97
2018-05-08T06:40:07.308Z,17.82
2018-05-08T06:42:35.695Z,18.19
2018-05-08T06:45:07.844Z,18.33
2018-05-08T06:47:36.126Z,18.49
2018-05-08T06:50:08.165Z,18.53
2018-05-08T06:52:36.455Z,18.32
2018-05-08T06:55:06.266Z,18.50
2018-05-08T06:57:34.872Z,18.69
2018-05-08T07:00:07.002Z,18.95
2018-05-08T07:02:35.291Z,18.80
2018-05-08T07:05:10.043Z,18.65
2018-05-08T07:07:38.326Z,18.87
2018-05-08T07:10:06.603Z,18.95
2018-05-08T07:12:34.879Z,18.98
2018-05-08T07:15:06.474Z,18.99
2018-05-08T07:17:34.810Z,19.19
2018-05-08T07:20:09.934Z,19.65
2018-05-08T07:22:38.210Z,19.77
2018-05-08T07:25:06.484Z,20.91
2018-05-08T07:27:34.773Z,22.29
2018-05-08T07:30:06.245Z,22.65
2018-05-08T07:32:34.459Z,23.73
2018-05-08T07:35:05.710Z,24.89
2018-05-08T07:37:33.987Z,23.30
2018-05-08T07:40:08.923Z,22.74
2018-05-08T07:42:37.179Z,23.52
2018-05-08T07:45:06.676Z,22.67
2018-05-08T07:47:34.967Z,21.37
2018-05-08T07:50:07.051Z,22.53
2018-05-08T07:52:35.329Z,23.44
2018-05-08T07:55:06.622Z,23.24
2018-05-08T07:57:34.987Z,24.21
2018-05-08T08:00:07.896Z,26.06
2018-05-08T08:02:36.185Z,24.31
2018-05-08T08:05:08.388Z,25.34
2018-05-08T08:07:36.748Z,26.08
2018-05-08T08:10:06.563Z,25.98
2018-05-08T08:12:35.087Z,25.70
2018-05-08T08:15:07.135Z,25.33
2018-05-08T08:17:35.599Z,25.17
2018-05-08T08:20:07.752Z,24.46
2018-05-08T08:22:36.015Z,23.58
2018-05-08T08:25:08.128Z,22.64
2018-05-08T08:27:36.387Z,23.11
2018-05-08T08:30:07.624Z,23.70
2018-05-08T08:32:35.958Z,24.14
2018-05-08T08:35:07.922Z,24.30
2018-05-08T08:37:36.184Z,24.59
2018-05-08T08:40:08.405Z,23.42
2018-05-08T08:42:36.892Z,24.70
2018-05-08T08:45:06.702Z,25.30
2018-05-08T08:47:35.656Z,26.68
2018-05-08T08:50:07.138Z,27.24
2018-05-08T08:52:35.403Z,26.95
2018-05-08T08:55:06.667Z,25.85
2018-05-08T08:57:34.922Z,24.35
2018-05-08T09:00:09.926Z,24.29
2018-05-08T09:02:38.192Z,24.79
2018-05-08T09:05:06.479Z,25.09
2018-05-08T09:07:34.747Z,24.48
2018-05-08T09:10:10.151Z,25.21
2018-05-08T09:12:38.403Z,25.70
2018-05-08T09:15:07.523Z,25.03
2018-05-08T09:17:35.798Z,25.46
2018-05-08T09:20:07.963Z,25.26
2018-05-08T09:22:36.217Z,24.57
2018-05-08T09:25:08.214Z,23.83
2018-05-08T09:27:36.539Z,24.33
2018-05-08T09:30:07.779Z,24.52
2018-05-08T09:32:36.363Z,24.76
2018-05-08T09:35:08.384Z,24.27
2018-05-08T09:37:36.714Z,24.48
2018-05-08T09:40:06.968Z,25.03
2018-05-08T09:42:35.228Z,24.32
2018-05-08T09:45:07.331Z,25.69
2018-05-08T09:47:35.599Z,26.39
2018-05-08T09:50:07.852Z,27.38
2018-05-08T09:52:36.541Z,28.63
2018-05-08T09:55:06.501Z,29.61
2018-05-08T09:57:35.196Z,30.12
2018-05-08T10:00:07.216Z,28.16
2018-05-08T10:02:35.516Z,27.80
2018-05-08T10:05:05.651Z,28.91
2018-05-08T10:07:33.920Z,28.30
2018-05-08T10:10:08.947Z,28.25
2018-05-08T10:12:37.211Z,27.72
2018-05-08T10:15:05.510Z,27.89
2018-05-08T10:17:34.363Z,26.36
2018-05-08T10:20:05.507Z,26.90
2018-05-08T10:22:33.775Z,27.16
2018-05-08T10:25:07.683Z,27.57
2018-05-08T10:27:35.964Z,27.20
2018-05-08T10:30:05.661Z,30.74
2018-05-08T10:32:34.147Z,31.40
2018-05-08T10:35:05.578Z,32.86
2018-05-08T10:37:33.860Z,29.91
2018-05-08T10:40:08.906Z,32.33
2018-05-08T10:42:37.185Z,32.35
2018-05-08T10:45:05.575Z,29.87
2018-05-08T10:47:33.843Z,32.02
2018-05-08T10:50:05.380Z,30.22
2018-05-08T10:52:33.624Z,31.03
2018-05-08T10:55:05.425Z,31.23
2018-05-08T10:57:33.696Z,30.40
2018-05-08T11:00:04.962Z,30.16
2018-05-08T11:02:33.332Z,28.19
2018-05-08T11:05:08.007Z,28.08
2018-05-08T11:07:36.283Z,27.65
2018-05-08T11:10:05.687Z,27.23
2018-05-08T11:12:34.148Z,27.90
2018-05-08T11:15:07.393Z,28.29
2018-05-08T11:17:36.038Z,27.45
2018-05-08T11:20:05.564Z,27.24
2018-05-08T11:22:33.823Z,27.20
2018-05-08T11:25:05.481Z,27.29
2018-05-08T11:27:34.619Z,26.77
2018-05-08T11:30:06.379Z,26.95
2018-05-08T11:32:34.654Z,26.47
2018-05-08T11:35:06.575Z,26.54
2018-05-08T11:37:35.044Z,27.17
2018-05-08T11:40:06.952Z,27.24
2018-05-08T11:42:35.247Z,26.78
2018-05-08T11:45:08.066Z,26.99
2018-05-08T11:47:36.354Z,27.18
2018-05-08T11:50:06.671Z,27.41
2018-05-08T11:52:35.088Z,27.51
2018-05-08T11:55:07.128Z,27.43
2018-05-08T11:57:35.407Z,27.30
2018-05-08T12:00:07.518Z,27.28
2018-05-08T12:02:35.841Z,27.33
2018-05-08T12:05:07.096Z,27.56
2018-05-08T12:07:35.596Z,27.93
2018-05-08T12:10:07.492Z,27.90
2018-05-08T12:12:35.874Z,28.15
2018-05-08T12:15:05.872Z,28.22
2018-05-08T12:17:34.156Z,27.83
2018-05-08T12:20:06.829Z,28.05
2018-05-08T12:22:35.108Z,28.00
2018-05-08T12:25:06.607Z,28.04
2018-05-08T12:27:35.008Z,28.14
2018-05-08T12:30:07.175Z,27.10
2018-05-08T12:32:35.473Z,27.51
2018-05-08T12:35:07.393Z,27.61
2018-05-08T12:37:35.854Z,27.90
2018-05-08T12:40:05.943Z,27.73
2018-05-08T12:42:34.224Z,28.13
2018-05-08T12:45:08.127Z,27.16
2018-05-08T12:47:36.585Z,27.42
2018-05-08T12:50:05.974Z,27.57
2018-05-08T12:52:34.261Z,27.63
2018-05-08T12:55:08.384Z,27.23
2018-05-08T12:57:36.659Z,26.96
2018-05-08T13:00:05.976Z,27.88
2018-05-08T13:02:34.267Z,27.94
2018-05-08T13:05:05.672Z,27.65
2018-05-08T13:07:34.108Z,27.71
2018-05-08T13:10:06.102Z,27.93
2018-05-08T13:12:34.623Z,27.58
2018-05-08T13:15:05.942Z,27.81
2018-05-08T13:17:34.236Z,28.12
2018-05-08T13:20:06.229Z,27.76
2018-05-08T13:22:34.511Z,27.92
2018-05-08T13:25:06.126Z,27.91
2018-05-08T13:27:34.441Z,27.80
2018-05-08T13:30:08.519Z,28.06
2018-05-08T13:32:36.841Z,27.56
2018-05-08T13:35:06.047Z,27.04
2018-05-08T13:37:34.344Z,27.58
2018-05-08T13:40:06.145Z,28.08
2018-05-08T13:42:34.439Z,28.17
2018-05-08T13:45:06.092Z,28.26
2018-05-08T13:47:34.636Z,28.47
2018-05-08T13:50:06.234Z,28.59
2018-05-08T13:52:34.518Z,28.60
2018-05-08T13:55:08.647Z,28.16
2018-05-08T13:57:36.883Z,28.82
2018-05-08T14:00:06.810Z,28.89
2018-05-08T14:02:35.094Z,27.99
2018-05-08T14:05:07.013Z,28.50
2018-05-08T14:07:35.300Z,28.01
2018-05-08T14:10:06.016Z,28.34
2018-05-08T14:12:34.298Z,27.96
2018-05-08T14:15:06.562Z,28.45
2018-05-08T14:17:34.880Z,28.62
2018-05-08T14:20:06.802Z,28.23
2018-05-08T14:22:35.093Z,28.19
2018-05-08T14:25:06.990Z,28.36
2018-05-08T14:27:35.289Z,28.18
2018-05-08T14:30:06.055Z,28.21
2018-05-08T14:32:34.329Z,27.56
2018-05-08T14:35:05.755Z,27.82
2018-05-08T14:37:34.026Z,28.08
2018-05-08T14:40:05.421Z,28.15
2018-05-08T14:42:33.700Z,27.67
2018-05-08T14:45:08.458Z,27.69
2018-05-08T14:47:36.892Z,28.04
2018-05-08T14:50:06.615Z,28.05
2018-05-08T14:52:34.894Z,28.16
2018-05-08T14:55:08.919Z,28.14
2018-05-08T14:57:37.202Z,27.98
2018-05-08T15:00:06.848Z,27.93
2018-05-08T15:02:35.226Z,28.10
2018-05-08T15:05:07.232Z,28.01
2018-05-08T15:07:35.516Z,28.06
2018-05-08T15:10:07.240Z,28.06
2018-05-08T15:12:35.526Z,28.01
2018-05-08T15:15:06.753Z,27.94
2018-05-08T15:17:35.066Z,27.96
2018-05-08T15:20:06.026Z,27.91
2018-05-08T15:22:34.291Z,27.40
2018-05-08T15:25:05.940Z,27.80
2018-05-08T15:27:34.210Z,27.97
2018-05-08T15:30:09.315Z,28.09
2018-05-08T15:32:37.605Z,28.04
2018-05-08T15:35:07.045Z,27.48
2018-05-08T15:37:35.324Z,27.76
2018-05-08T15:40:07.067Z,27.92
2018-05-08T15:42:35.351Z,27.93
2018-05-08T15:45:06.710Z,27.79
2018-05-08T15:47:35.005Z,27.86
2018-05-08T15:50:06.324Z,27.63
2018-05-08T15:52:34.747Z,27.13
2018-05-08T15:55:06.206Z,27.51
2018-05-08T15:57:34.709Z,27.42
2018-05-08T16:00:06.868Z,27.58
2018-05-08T16:02:35.347Z,27.67
2018-05-08T16:05:06.810Z,27.76
2018-05-08T16:07:35.094Z,27.73
2018-05-08T16:10:07.739Z,27.86
2018-05-08T16:12:36.011Z,27.71
2018-05-08T16:15:06.541Z,27.23
2018-05-08T16:17:34.823Z,27.14
2018-05-08T16:20:06.968Z,27.16
2018-05-08T16:22:35.238Z,27.20
2018-05-08T16:25:06.481Z,27.07
2018-05-08T16:27:34.869Z,27.39
2018-05-08T16:30:06.952Z,27.41
2018-05-08T16:32:35.198Z,27.20
2018-05-08T16:35:06.620Z,27.25
2018-05-08T16:37:34.895Z,27.31
2018-05-08T16:40:07.027Z,26.97
2018-05-08T16:42:35.511Z,27.18
2018-05-08T16:45:07.637Z,27.21
2018-05-08T16:47:35.950Z,27.22
2018-05-08T16:50:06.149Z,27.09
2018-05-08T16:52:34.422Z,27.18
2018-05-08T16:55:05.826Z,27.16
2018-05-08T16:57:34.107Z,27.16
2018-05-08T17:00:05.664Z,26.68
2018-05-08T17:02:33.973Z,26.76
2018-05-08T17:05:05.379Z,26.72
2018-05-08T17:07:33.700Z,26.65
2018-05-08T17:10:08.099Z,26.66
2018-05-08T17:12:36.517Z,26.57
2018-05-08T17:15:06.843Z,26.55
2018-05-08T17:17:35.917Z,26.60
2018-05-08T17:20:05.923Z,26.55
2018-05-08T17:22:34.213Z,26.40
2018-05-08T17:25:06.744Z,26.41
2018-05-08T17:27:35.028Z,26.39
2018-05-08T17:30:06.521Z,26.41
2018-05-08T17:32:35.015Z,26.44
2018-05-08T17:35:07.115Z,26.47
2018-05-08T17:37:35.568Z,26.54
2018-05-08T17:40:06.876Z,26.26
2018-05-08T17:42:35.275Z,26.17
2018-05-08T17:45:07.264Z,26.16
2018-05-08T17:47:35.548Z,26.22
2018-05-08T17:50:07.763Z,26.10
2018-05-08T17:52:36.364Z,25.91
2018-05-08T17:55:06.050Z,25.91
2018-05-08T17:57:34.379Z,25.86
2018-05-08T18:00:06.220Z,25.79
2018-05-08T18:02:34.518Z,25.71
2018-05-08T18:05:05.952Z,25.67
2018-05-08T18:07:34.280Z,25.58
2018-05-08T18:10:07.223Z,25.53
2018-05-08T18:12:35.738Z,25.43
2018-05-08T18:15:07.548Z,25.44
2018-05-08T18:17:35.873Z,25.43
2018-05-08T18:20:07.631Z,25.36
2018-05-08T18:22:35.925Z,25.37
2018-05-08T18:25:05.955Z,25.29
2018-05-08T18:27:34.254Z,25.25
2018-05-08T18:30:05.980Z,25.19
2018-05-08T18:32:34.675Z,25.20
2018-05-08T18:35:06.023Z,25.15
2018-05-08T18:37:34.332Z,25.07
2018-05-08T18:40:05.960Z,24.94
2018-05-08T18:42:34.244Z,24.81
2018-05-08T18:45:05.836Z,24.76
2018-05-08T18:47:34.148Z,24.70
2018-05-08T18:50:05.524Z,24.49
2018-05-08T18:52:34.062Z,24.46
2018-05-08T18:55:05.311Z,24.41
2018-05-08T18:57:33.612Z,24.38
2018-05-08T19:00:10.813Z,24.20
2018-05-08T19:02:39.386Z,24.16
2018-05-08T19:05:07.759Z,23.93
2018-05-08T19:07:36.056Z,23.82
2018-05-08T19:10:05.922Z,23.62
2018-05-08T19:12:34.205Z,23.63
2018-05-08T19:15:11.128Z,23.56
2018-05-08T19:17:39.426Z,23.45
2018-05-08T19:20:08.063Z,23.40
2018-05-08T19:22:36.381Z,23.40
2018-05-08T19:25:07.999Z,23.31
2018-05-08T19:27:36.403Z,23.26
2018-05-08T19:30:13.303Z,23.17
2018-05-08T19:32:41.599Z,23.05
2018-05-08T19:35:15.396Z,22.77
2018-05-08T19:37:49.381Z,22.64
2018-05-08T19:40:17.666Z,22.55
2018-05-08T19:42:46.564Z,22.43
2018-05-08T19:45:15.093Z,22.43
2018-05-08T19:47:43.531Z,22.39
2018-05-08T19:50:11.799Z,22.28
2018-05-08T19:52:40.100Z,22.11
2018-05-08T19:55:08.920Z,22.15
2018-05-08T19:57:37.395Z,22.16
2018-05-08T20:00:06.693Z,22.11
2018-05-08T20:02:34.956Z,22.21
2018-05-08T20:05:06.975Z,22.19
2018-05-08T20:07:35.244Z,22.27
2018-05-08T20:10:07.272Z,22.30
2018-05-08T20:12:35.545Z,22.35
2018-05-08T20:15:06.976Z,22.37
2018-05-08T20:17:35.244Z,22.39
2018-05-08T20:20:06.272Z,22.37
2018-05-08T20:22:35.069Z,22.37
2018-05-08T20:25:06.991Z,22.28
2018-05-08T20:27:35.609Z,22.21
2018-05-08T20:30:07.917Z,22.14
2018-05-08T20:32:36.195Z,22.10
2018-05-08T20:35:06.103Z,22.11
2018-05-08T20:37:34.369Z,22.03
2018-05-08T20:40:06.307Z,22.01
2018-05-08T20:42:34.582Z,21.97
2018-05-08T20:45:07.503Z,21.90
2018-05-08T20:47:35.783Z,21.87
2018-05-08T20:50:07.787Z,21.68
2018-05-08T20:52:36.071Z,21.63
2018-05-08T20:55:06.201Z,21.52
2018-05-08T20:57:34.480Z,21.56
2018-05-08T21:00:06.092Z,21.46
2018-05-08T21:02:34.359Z,21.42
2018-05-08T21:05:07.602Z,21.22
2018-05-08T21:07:35.879Z,21.16
2018-05-08T21:10:07.314Z,21.04
2018-05-08T21:12:35.743Z,20.98
2018-05-08T21:15:08.019Z,20.89
2018-05-08T21:17:36.323Z,20.66
2018-05-08T21:20:06.271Z,20.10
2018-05-08T21:22:34.542Z,20.30
2018-05-08T21:25:06.282Z,20.32
2018-05-08T21:27:40.146Z,20.18
2018-05-08T21:33:07.527Z,20.29
2018-05-08T21:35:36.101Z,20.17
2018-05-08T21:38:04.400Z,20.08
2018-05-08T21:40:32.858Z,19.98
2018-05-08T21:43:01.132Z,19.96
2018-05-08T21:45:29.427Z,19.67
2018-05-08T21:47:57.701Z,19.54
2018-05-08T21:50:26.004Z,19.37
2018-05-08T21:52:54.269Z,19.40
2018-05-08T21:55:22.555Z,19.28
2018-05-08T21:57:50.852Z,19.21
2018-05-08T22:00:19.167Z,19.05
2018-05-08T22:02:47.436Z,18.98
2018-05-08T22:05:15.731Z,18.96
2018-05-08T22:07:43.988Z,18.82
2018-05-08T22:10:12.591Z,18.80
2018-05-08T22:12:40.866Z,18.84
2018-05-08T22:15:09.155Z,18.81
2018-05-08T22:17:37.414Z,18.84
2018-05-08T22:20:05.991Z,18.92
2018-05-08T22:22:34.264Z,18.92
2018-05-08T22:25:08.281Z,18.91
2018-05-08T22:27:36.559Z,18.85
2018-05-08T22:30:05.970Z,18.77
2018-05-08T22:32:34.255Z,18.70
2018-05-08T22:35:06.204Z,18.58
2018-05-08T22:37:34.523Z,18.61
2018-05-08T22:40:06.135Z,18.54
2018-05-08T22:42:34.778Z,18.61
2018-05-08T22:45:06.597Z,18.61
2018-05-08T22:47:34.869Z,18.66
2018-05-08T22:50:05.832Z,18.71
2018-05-08T22:52:34.109Z,18.77
2018-05-08T22:55:05.504Z,18.72
2018-05-08T22:57:33.784Z,18.76
2018-05-08T23:00:05.139Z,18.69
2018-05-08T23:02:33.411Z,18.77
2018-05-08T23:05:08.143Z,18.92
2018-05-08T23:07:36.411Z,19.04
2018-05-08T23:10:05.783Z,19.09
2018-05-08T23:12:34.293Z,19.18
2018-05-08T23:15:05.695Z,19.26
2018-05-08T23:17:33.989Z,19.28
2018-05-08T23:20:06.198Z,19.38
2018-05-08T23:22:34.594Z,19.31
2018-05-08T23:25:06.387Z,19.25
2018-05-08T23:27:34.837Z,19.26
2018-05-08T23:30:06.699Z,19.02
2018-05-08T23:32:35.551Z,19.03
2018-05-08T23:35:07.139Z,19.00
2018-05-08T23:37:35.444Z,18.98
2018-05-08T23:40:07.544Z,18.93
2018-05-08T23:42:35.841Z,18.80
2018-05-08T23:45:05.672Z,18.96
2018-05-08T23:47:33.958Z,18.85
2018-05-08T23:50:05.376Z,18.83
2018-05-08T23:52:33.837Z,18.84
2018-05-08T23:55:05.147Z,18.75
2018-05-08T23:57:33.604Z,18.77
